Аэропорт: Челябинск. Челябинск

ICAO: USCC

METAR:
2021-07-28 13:00:00
USCC 281300Z 32006MPS 9999 SCT040CB 18/07 Q1010 R27/000060 NOSIG RMK QFE738
METAR:
2021-07-28 10:59:00
TAF USCC 281059Z 2812/2912 28003G10MPS 9999 BKN020CB TEMPO 2812/2815 30003G13MPS -SHRA